Time;durP1;ratioP1;P1;durP2;ratioP2;P2;SDS_P1;SDS_P2;PMS_P1;PMS_P2;Temp;Humidity;BMP_temperature;BMP_pressure;BME280_temperature;BME280_humidity;BME280_pressure;Samples;Min_cycle;Max_cycle;Signal;HPM_P1;HPM_P2
2023/06/28 00:02:57;;;;;;;3.37;1.10;;;21.20;97.60;;;;;;1933319;72;22652;-75
2023/06/28 00:05:49;;;;;;;5.58;1.37;;;21.00;98.10;;;;;;1898512;75;21189;-75
2023/06/28 00:08:40;;;;;;;1.90;1.07;;;20.90;98.60;;;;;;1911033;75;21557;-75
2023/06/28 00:11:32;;;;;;;4.28;1.32;;;20.80;98.80;;;;;;1909225;73;21518;-74
2023/06/28 00:14:24;;;;;;;3.10;1.12;;;20.70;99.20;;;;;;1899496;75;21142;-74
2023/06/28 00:17:16;;;;;;;3.33;1.25;;;20.60;99.60;;;;;;1890328;75;21253;-74
2023/06/28 00:20:10;;;;;;;3.27;1.10;;;20.40;99.90;;;;;;1912057;73;21052;-74
2023/06/28 00:23:03;;;;;;;3.58;0.88;;;20.40;99.90;;;;;;1902920;75;21118;-74
2023/06/28 00:25:54;;;;;;;3.25;1.05;;;20.30;99.90;;;;;;1907383;75;21175;-74
2023/06/28 00:28:45;;;;;;;4.40;1.00;;;20.30;99.90;;;;;;1892005;74;21145;-74
2023/06/28 00:31:36;;;;;;;2.47;1.10;;;20.20;99.90;;;;;;1910630;75;21165;-74
2023/06/28 00:34:28;;;;;;;3.10;0.88;;;20.20;99.90;;;;;;1900459;75;21044;-75
2023/06/28 00:37:19;;;;;;;3.05;1.30;;;20.20;99.90;;;;;;1909708;75;21102;-74
2023/06/28 00:40:12;;;;;;;2.20;1.05;;;20.20;99.90;;;;;;1903280;75;21134;-75
2023/06/28 00:43:04;;;;;;;4.72;1.27;;;20.30;99.90;;;;;;1899429;75;21162;-74
2023/06/28 00:45:56;;;;;;;3.10;1.05;;;20.30;99.90;;;;;;1907301;75;21097;-74
2023/06/28 00:48:47;;;;;;;4.10;1.10;;;20.20;99.90;;;;;;1895653;75;21124;-74
2023/06/28 00:51:41;;;;;;;2.77;1.17;;;20.20;99.90;;;;;;1911290;73;21099;-75
2023/06/28 00:54:50;;;;;;;3.10;1.10;;;20.10;99.90;;;;;;1909216;74;21181;-74
2023/06/28 00:57:43;;;;;;;5.78;1.45;;;20.00;99.90;;;;;;1903987;74;21109;-74
2023/06/28 01:00:36;;;;;;;2.00;1.00;;;19.90;99.90;;;;;;1899508;74;21181;-74
2023/06/28 01:03:27;;;;;;;4.15;1.37;;;19.90;99.90;;;;;;1893940;73;21133;-74
2023/06/28 01:06:21;;;;;;;2.40;1.10;;;19.80;99.90;;;;;;1905140;75;21538;-74
2023/06/28 01:09:13;;;;;;;3.20;1.02;;;19.80;99.90;;;;;;1904322;75;21126;-74
2023/06/28 01:12:06;;;;;;;3.15;1.30;;;19.70;99.90;;;;;;1888820;75;21125;-74
2023/06/28 01:17:36;;;;;;;2.80;1.17;;;19.60;99.90;;;;;;1927605;72;22730;-74
2023/06/28 01:20:30;;;;;;;2.72;1.05;;;19.60;99.90;;;;;;1893934;75;21180;-75
2023/06/28 01:23:20;;;;;;;2.37;1.10;;;19.60;99.90;;;;;;1889488;75;21184;-75
2023/06/28 01:26:12;;;;;;;2.83;1.05;;;19.60;99.90;;;;;;1884423;75;21563;-74
2023/06/28 01:29:04;;;;;;;3.65;1.32;;;19.50;99.90;;;;;;1892549;75;21175;-74
2023/06/28 01:31:56;;;;;;;2.95;0.80;;;19.50;99.90;;;;;;1894840;75;21109;-75
2023/06/28 01:34:47;;;;;;;2.35;1.10;;;19.40;99.90;;;;;;1890200;74;21207;-75
2023/06/28 01:37:39;;;;;;;1.42;0.90;;;19.50;99.90;;;;;;1897752;75;21505;-74
2023/06/28 01:43:16;;;;;;;5.55;1.30;;;19.40;99.90;;;;;;1946148;72;22178;-74
2023/06/28 01:46:07;;;;;;;3.92;1.15;;;19.30;99.90;;;;;;1933847;73;21143;-74
2023/06/28 01:48:58;;;;;;;2.72;1.20;;;19.20;99.90;;;;;;1925095;73;21191;-76
2023/06/28 01:51:49;;;;;;;2.70;1.30;;;19.20;99.90;;;;;;1926994;73;21164;-76
2023/06/28 01:54:41;;;;;;;3.83;1.10;;;19.20;99.90;;;;;;1922533;73;21098;-76
2023/06/28 01:57:33;;;;;;;2.87;1.00;;;19.20;99.90;;;;;;1930150;73;21035;-76
2023/06/28 02:00:26;;;;;;;3.98;1.30;;;19.10;99.90;;;;;;1923689;73;21074;-75
2023/06/28 02:03:17;;;;;;;2.47;1.25;;;19.10;99.90;;;;;;1927787;73;21093;-75
2023/06/28 02:08:48;;;;;;;3.15;1.60;;;19.00;99.90;;;;;;1953236;72;22618;-74
2023/06/28 02:11:39;;;;;;;3.65;1.20;;;19.00;99.90;;;;;;1928618;73;21102;-75
2023/06/28 02:14:30;;;;;;;1.77;1.17;;;19.00;99.90;;;;;;1928041;73;21079;-75
2023/06/28 02:17:23;;;;;;;2.45;1.45;;;18.90;99.90;;;;;;1919945;73;21091;-75
2023/06/28 02:20:14;;;;;;;1.65;1.00;;;18.90;99.90;;;;;;1918949;73;21104;-74
2023/06/28 02:23:05;;;;;;;2.50;1.02;;;18.90;99.90;;;;;;1917353;75;21168;-74
2023/06/28 02:26:01;;;;;;;2.40;1.10;;;18.90;99.90;;;;;;1917157;75;21164;-74
2023/06/28 02:28:53;;;;;;;2.85;1.10;;;19.00;99.90;;;;;;1917298;75;21204;-74
2023/06/28 02:31:45;;;;;;;3.40;1.12;;;18.90;99.90;;;;;;1917000;75;21191;-74
2023/06/28 02:37:18;;;;;;;2.55;1.37;;;18.90;99.90;;;;;;1929107;72;22255;-75
2023/06/28 02:42:49;;;;;;;2.62;1.35;;;18.80;99.90;;;;;;1933078;72;22729;-75
2023/06/28 02:48:20;;;;;;;3.95;1.20;;;18.80;99.90;;;;;;1935739;72;22296;-74
2023/06/28 02:51:12;;;;;;;2.67;1.40;;;18.80;99.90;;;;;;1905651;75;21110;-74
2023/06/28 02:54:03;;;;;;;2.90;1.55;;;18.80;99.90;;;;;;1859072;76;21057;-74
2023/06/28 02:56:55;;;;;;;3.92;1.20;;;18.80;99.90;;;;;;1911520;75;21075;-75
2023/06/28 03:02:39;;;;;;;2.98;1.25;;;18.70;99.90;;;;;;1947865;72;22639;-75
2023/06/28 03:05:31;;;;;;;2.90;1.02;;;18.70;99.90;;;;;;1924546;73;21114;-74
2023/06/28 03:08:22;;;;;;;2.55;1.20;;;18.60;99.90;;;;;;1916851;73;21119;-75
2023/06/28 03:13:53;;;;;;;2.80;1.15;;;18.40;99.90;;;;;;1929927;72;22296;-74
2023/06/28 03:19:24;;;;;;;4.12;1.30;;;18.40;99.90;;;;;;1942958;72;22235;-74
2023/06/28 03:22:16;;;;;;;2.55;1.20;;;18.30;99.90;;;;;;1892904;75;21154;-74
2023/06/28 03:25:08;;;;;;;2.87;1.40;;;18.30;99.90;;;;;;1911120;75;21172;-74
2023/06/28 03:28:03;;;;;;;3.42;1.40;;;18.40;99.90;;;;;;1903360;75;21091;-74
2023/06/28 03:30:54;;;;;;;3.02;1.40;;;18.30;99.90;;;;;;1900720;75;21468;-75
2023/06/28 03:36:24;;;;;;;2.92;1.30;;;18.20;99.90;;;;;;1932411;72;22209;-75
2023/06/28 03:39:17;;;;;;;6.45;1.60;;;18.30;99.90;;;;;;1896243;75;21110;-75
2023/06/28 03:42:09;;;;;;;3.27;1.10;;;18.40;99.90;;;;;;1886410;75;21077;-75
2023/06/28 03:47:39;;;;;;;3.15;1.02;;;18.50;99.90;;;;;;1948563;72;22154;-76
2023/06/28 03:50:31;;;;;;;1.67;1.10;;;18.60;99.90;;;;;;1909044;73;21110;-77
2023/06/28 03:53:23;;;;;;;1.82;1.20;;;18.60;99.90;;;;;;1889680;75;21180;-76
2023/06/28 03:58:54;;;;;;;1.82;1.20;;;18.60;99.90;;;;;;1936860;72;22186;-75
2023/06/28 04:04:25;;;;;;;4.30;1.20;;;18.70;99.90;;;;;;1934504;72;22206;-75
2023/06/28 04:07:17;;;;;;;2.05;0.90;;;18.80;99.90;;;;;;1889944;75;21227;-76
2023/06/28 04:12:49;;;;;;;2.77;1.25;;;18.80;99.90;;;;;;1946275;72;22159;-75
2023/06/28 04:15:40;;;;;;;4.17;1.50;;;18.70;99.90;;;;;;1909679;75;21142;-76
2023/06/28 04:18:32;;;;;;;1.47;1.07;;;18.70;99.90;;;;;;1887496;75;21118;-77
2023/06/28 04:21:23;;;;;;;3.17;1.22;;;18.80;99.90;;;;;;1889672;75;21132;-76
2023/06/28 04:24:15;;;;;;;2.50;1.10;;;18.70;99.90;;;;;;1888787;75;21114;-76
2023/06/28 04:27:09;;;;;;;2.02;1.30;;;18.60;99.90;;;;;;1897450;73;21161;-76
2023/06/28 04:30:00;;;;;;;3.08;1.27;;;18.60;99.90;;;;;;1902701;75;21222;-76
2023/06/28 04:32:51;;;;;;;5.83;1.30;;;18.50;99.90;;;;;;1902232;73;21109;-76
2023/06/28 04:35:46;;;;;;;4.20;1.40;;;18.50;99.90;;;;;;1890607;75;21050;-76
2023/06/28 04:38:37;;;;;;;5.85;1.72;;;18.60;99.90;;;;;;1908129;73;21218;-77
2023/06/28 04:41:28;;;;;;;2.85;1.27;;;18.60;99.90;;;;;;1895309;75;21118;-77
2023/06/28 04:44:20;;;;;;;4.92;1.50;;;18.60;99.90;;;;;;1899940;73;21106;-77
2023/06/28 04:47:15;;;;;;;3.02;1.30;;;18.70;99.90;;;;;;1890589;75;21107;-77
2023/06/28 04:52:44;;;;;;;4.95;1.42;;;18.70;99.90;;;;;;1929720;72;22238;-75
2023/06/28 04:56:11;;;;;;;9.55;1.47;;;18.70;99.90;;;;;;1892045;73;21152;-77
2023/06/28 04:59:02;;;;;;;6.85;1.55;;;18.60;99.90;;;;;;1883058;75;21114;-77
2023/06/28 05:01:58;;;;;;;4.80;1.40;;;18.70;99.90;;;;;;1881080;75;21538;-76
2023/06/28 05:07:29;;;;;;;4.75;1.40;;;18.80;99.90;;;;;;1937106;72;22297;-75
2023/06/28 05:10:20;;;;;;;6.03;1.50;;;18.90;99.90;;;;;;1893534;74;21156;-77
2023/06/28 05:13:12;;;;;;;1.72;0.95;;;18.90;99.90;;;;;;1888647;75;21111;-76
2023/06/28 05:18:42;;;;;;;6.15;1.82;;;19.00;99.90;;;;;;1947877;72;22177;-78
2023/06/28 05:21:33;;;;;;;2.55;1.37;;;19.10;99.90;;;;;;1927420;73;21105;-83
2023/06/28 05:24:25;;;;;;;2.10;0.98;;;19.00;99.90;;;;;;1916449;75;21523;-81
2023/06/28 05:27:16;;;;;;;3.20;1.30;;;18.90;99.90;;;;;;1916506;73;21303;-81
2023/06/28 05:30:10;;;;;;;6.55;1.42;;;18.80;99.90;;;;;;1920644;73;21088;-80
2023/06/28 05:33:02;;;;;;;3.47;1.40;;;18.80;99.90;;;;;;1927943;73;21164;-81
2023/06/28 05:35:54;;;;;;;7.70;1.52;;;18.90;99.90;;;;;;1919976;73;21869;-80
2023/06/28 05:38:46;;;;;;;7.05;1.70;;;19.00;99.90;;;;;;1918058;75;21163;-80
2023/06/28 05:44:21;;;;;;;3.27;1.17;;;19.10;99.90;;;;;;1934024;72;22599;-79
2023/06/28 05:47:13;;;;;;;2.92;1.27;;;19.10;99.90;;;;;;1905382;73;21191;-79
2023/06/28 05:50:08;;;;;;;2.37;1.30;;;19.00;99.90;;;;;;1898225;75;21117;-81
2023/06/28 05:53:00;;;;;;;3.15;1.60;;;19.00;99.90;;;;;;1923027;73;21153;-79
2023/06/28 05:55:51;;;;;;;2.98;1.37;;;19.00;99.90;;;;;;1899369;75;21105;-79
2023/06/28 05:58:44;;;;;;;3.62;1.50;;;19.00;99.90;;;;;;1901998;75;21518;-79
2023/06/28 06:04:16;;;;;;;4.45;1.75;;;19.00;99.90;;;;;;1928394;72;22201;-81
2023/06/28 06:07:07;;;;;;;6.08;2.05;;;19.00;99.90;;;;;;1901716;75;21106;-79
2023/06/28 06:12:38;;;;;;;4.05;1.98;;;19.10;99.90;;;;;;1927727;72;22271;-79
2023/06/28 06:15:29;;;;;;;3.27;1.55;;;19.10;99.90;;;;;;1904325;75;21082;-79
2023/06/28 06:18:20;;;;;;;5.00;1.50;;;19.20;99.90;;;;;;1902349;75;21110;-80
2023/06/28 06:21:12;;;;;;;4.25;1.60;;;19.10;99.90;;;;;;1911904;75;21584;-79
2023/06/28 06:26:42;;;;;;;2.72;1.27;;;19.10;99.90;;;;;;1925906;72;22185;-79
2023/06/28 06:29:34;;;;;;;3.30;1.30;;;19.20;99.90;;;;;;1884490;75;21184;-79
2023/06/28 06:32:25;;;;;;;3.50;1.37;;;19.10;99.90;;;;;;1882693;75;21163;-79
2023/06/28 06:37:56;;;;;;;2.17;1.22;;;19.20;99.90;;;;;;1943780;72;22325;-79
2023/06/28 06:40:49;;;;;;;4.12;1.75;;;19.20;99.90;;;;;;1923265;73;21123;-79
2023/06/28 06:43:40;;;;;;;3.00;1.55;;;19.30;99.90;;;;;;1934747;73;21118;-79
2023/06/28 06:49:18;;;;;;;2.37;1.27;;;19.60;99.90;;;;;;1914396;72;22197;-79
2023/06/28 06:52:06;;;;;;;3.45;1.45;;;19.60;99.90;;;;;;1896820;75;21157;-79
2023/06/28 06:57:37;;;;;;;3.35;1.47;;;19.70;99.90;;;;;;1933409;72;22737;-79
2023/06/28 07:00:29;;;;;;;3.00;1.32;;;19.80;99.90;;;;;;1892135;75;21124;-81
2023/06/28 07:03:20;;;;;;;3.30;1.45;;;19.80;99.90;;;;;;1903017;75;21087;-79
2023/06/28 07:08:51;;;;;;;4.03;1.37;;;20.00;99.90;;;;;;1962228;72;22321;-79
2023/06/28 07:11:42;;;;;;;3.72;1.55;;;20.10;99.90;;;;;;1916865;73;21102;-79
2023/06/28 07:14:34;;;;;;;4.30;1.52;;;20.10;99.90;;;;;;1916367;73;21134;-78
2023/06/28 07:17:30;;;;;;;7.12;1.57;;;20.20;99.90;;;;;;1910485;75;21168;-79
2023/06/28 07:23:00;;;;;;;2.67;1.22;;;20.40;99.90;;;;;;1936556;72;22197;-79
2023/06/28 07:28:30;;;;;;;5.45;1.87;;;20.60;99.90;;;;;;1947233;72;22622;-82
2023/06/28 07:34:04;;;;;;;4.10;1.80;;;20.70;99.90;;;;;;1945311;72;22169;-83
2023/06/28 07:36:55;;;;;;;4.55;1.50;;;20.80;99.90;;;;;;1926939;73;21099;-82
2023/06/28 07:39:46;;;;;;;3.15;1.60;;;20.80;99.90;;;;;;1930277;74;21106;-83
2023/06/28 07:42:37;;;;;;;5.33;1.40;;;20.70;99.90;;;;;;1917365;73;21122;-83
2023/06/28 07:45:28;;;;;;;3.65;1.60;;;20.80;99.90;;;;;;1924297;73;21233;-83
2023/06/28 07:48:20;;;;;;;6.15;1.70;;;20.90;99.90;;;;;;1922871;73;21114;-83
2023/06/28 07:51:11;;;;;;;4.20;1.30;;;20.90;99.90;;;;;;1928463;73;21090;-80
2023/06/28 07:54:03;;;;;;;4.85;1.60;;;21.10;99.90;;;;;;1925959;73;21117;-83
2023/06/28 07:56:54;;;;;;;3.92;1.70;;;21.10;99.90;;;;;;1925338;73;21040;-82
2023/06/28 08:02:25;;;;;;;5.08;1.50;;;21.00;99.90;;;;;;1928275;72;22617;-81
2023/06/28 08:05:17;;;;;;;3.67;1.57;;;21.00;99.90;;;;;;1889420;75;21174;-82
2023/06/28 08:08:08;;;;;;;4.85;1.65;;;21.10;99.90;;;;;;1900406;75;21115;-81
2023/06/28 08:13:39;;;;;;;5.37;1.40;;;21.30;99.90;;;;;;1939163;72;22135;-82
2023/06/28 08:16:32;;;;;;;4.53;1.45;;;21.30;99.90;;;;;;1899774;73;21153;-82
2023/06/28 08:22:03;;;;;;;3.60;1.52;;;21.60;99.90;;;;;;1956911;72;22243;-82
2023/06/28 08:27:34;;;;;;;5.25;1.20;;;21.50;99.90;;;;;;1944786;72;22118;-82
2023/06/28 08:30:25;;;;;;;2.45;1.20;;;21.60;99.90;;;;;;1905934;74;21113;-83
2023/06/28 08:33:16;;;;;;;5.25;1.30;;;21.60;99.90;;;;;;1904599;74;21129;-82
2023/06/28 08:36:08;;;;;;;2.02;1.30;;;21.60;99.90;;;;;;1909547;74;21192;-83
2023/06/28 08:38:59;;;;;;;3.65;1.30;;;21.80;99.90;;;;;;1878309;75;21114;-82
2023/06/28 08:41:51;;;;;;;2.77;1.30;;;21.90;99.90;;;;;;1905365;74;21114;-82
2023/06/28 08:44:44;;;;;;;1.95;1.10;;;21.90;99.90;;;;;;1911964;74;21086;-83
2023/06/28 08:50:14;;;;;;;3.75;1.20;;;22.20;99.90;;;;;;1937541;72;22171;-83
2023/06/28 08:53:09;;;;;;;2.90;1.30;;;22.30;99.90;;;;;;1901486;75;21086;-83
2023/06/28 08:56:02;;;;;;;3.25;1.05;;;22.40;99.90;;;;;;1897354;73;21123;-82
2023/06/28 08:58:55;;;;;;;3.98;1.50;;;22.40;99.90;;;;;;1883940;76;21119;-82
2023/06/28 09:01:47;;;;;;;2.60;1.55;;;22.50;99.90;;;;;;1896929;75;21083;-83
2023/06/28 09:04:39;;;;;;;5.87;1.30;;;22.50;99.90;;;;;;1899512;75;21113;-83
2023/06/28 09:07:34;;;;;;;5.33;1.50;;;22.60;99.90;;;;;;1884034;76;21086;-83
2023/06/28 09:13:08;;;;;;;2.90;1.40;;;22.70;99.90;;;;;;1921180;72;22225;-84
2023/06/28 09:15:59;;;;;;;4.45;1.50;;;22.80;99.90;;;;;;1901737;74;21055;-82
2023/06/28 09:18:51;;;;;;;3.65;1.25;;;22.90;99.90;;;;;;1891095;75;21116;-82
2023/06/28 09:24:25;;;;;;;3.52;1.27;;;23.00;99.90;;;;;;1945042;72;22307;-82
2023/06/28 09:27:17;;;;;;;3.47;1.40;;;23.00;99.90;;;;;;1904536;74;21159;-82
2023/06/28 09:30:14;;;;;;;2.55;1.37;;;23.10;99.90;;;;;;1904661;74;21051;-82
2023/06/28 09:33:07;;;;;;;2.58;1.30;;;23.20;99.90;;;;;;1904247;75;21141;-82
2023/06/28 09:35:59;;;;;;;5.90;1.80;;;23.20;99.90;;;;;;1916459;74;21122;-82
2023/06/28 09:41:39;;;;;;;4.70;1.40;;;23.40;99.90;;;;;;1933407;72;22177;-82
2023/06/28 09:44:31;;;;;;;2.98;1.32;;;23.60;99.90;;;;;;1884771;75;21643;-82
2023/06/28 09:52:44;;;;;;;2.05;1.30;;;23.80;99.90;;;;;;1942274;72;22673;-82
2023/06/28 09:58:19;;;;;;;2.55;1.40;;;24.00;99.90;;;;;;1943489;72;22205;-82
2023/06/28 10:01:10;;;;;;;3.40;1.15;;;24.00;99.90;;;;;;1894659;74;21063;-83
2023/06/28 10:04:05;;;;;;;4.30;1.50;;;24.00;99.90;;;;;;1909271;75;21126;-83
2023/06/28 10:09:41;;;;;;;4.08;1.40;;;24.10;99.90;;;;;;1948446;72;22638;-81
2023/06/28 10:12:33;;;;;;;3.20;1.40;;;24.00;99.90;;;;;;1905714;75;21253;-82
2023/06/28 10:18:04;;;;;;;3.20;1.20;;;24.30;99.90;;;;;;1919926;72;22228;-82
2023/06/28 10:23:43;;;;;;;3.40;1.30;;;24.50;99.90;;;;;;1943151;72;22103;-82
2023/06/28 10:29:15;;;;;;;3.17;1.52;;;24.70;99.90;;;;;;1944994;72;22117;-82
2023/06/28 10:32:10;;;;;;;5.60;1.45;;;24.70;99.90;;;;;;1907788;73;21200;-83
2023/06/28 10:35:02;;;;;;;2.10;1.05;;;24.70;99.90;;;;;;1921786;73;21098;-83
2023/06/28 10:40:33;;;;;;;2.92;1.40;;;24.90;99.90;;;;;;1933351;72;22162;-82
2023/06/28 10:43:25;;;;;;;4.08;1.45;;;24.90;99.90;;;;;;1905509;75;21071;-83
2023/06/28 10:49:03;;;;;;;3.40;1.50;;;25.00;99.90;;;;;;1919624;72;28551;-82
2023/06/28 10:51:54;;;;;;;2.15;1.47;;;25.20;99.90;;;;;;1914268;75;21498;-82
2023/06/28 10:54:45;;;;;;;3.67;1.37;;;25.20;99.90;;;;;;1901618;75;21090;-80
2023/06/28 10:57:38;;;;;;;5.08;1.70;;;25.30;99.90;;;;;;1898867;75;21099;-82
2023/06/28 11:03:26;;;;;;;2.80;1.92;;;25.30;99.90;;;;;;1948985;72;22073;-82
2023/06/28 11:06:22;;;;;;;3.83;1.45;;;25.40;99.90;;;;;;1906798;75;21197;-82
2023/06/28 11:09:15;;;;;;;3.47;1.27;;;25.20;99.90;;;;;;1912758;75;21106;-81
2023/06/28 11:12:09;;;;;;;3.20;1.72;;;25.40;99.90;;;;;;1911238;75;21228;-88
2023/06/28 11:17:47;;;;;;;2.83;1.50;;;25.50;99.90;;;;;;1946048;72;22150;-84
2023/06/28 11:20:51;;;;;;;3.33;1.40;;;25.50;99.90;;;;;;1924404;73;21180;-85
2023/06/28 11:23:44;;;;;;;2.80;1.70;;;25.60;99.90;;;;;;1917018;73;21188;-87
2023/06/28 11:26:38;;;;;;;2.92;1.52;;;25.60;99.90;;;;;;1935339;73;21046;-87
2023/06/28 11:32:10;;;;;;;4.15;1.45;;;25.80;99.90;;;;;;1930701;72;22259;-83
2023/06/28 11:35:03;;;;;;;4.83;1.27;;;25.80;99.90;;;;;;1885367;75;21159;-84
2023/06/28 11:37:56;;;;;;;2.77;1.60;;;26.00;99.90;;;;;;1872370;76;21071;-84
2023/06/28 11:40:47;;;;;;;4.55;1.37;;;26.10;99.90;;;;;;1867750;75;21275;-83
2023/06/28 11:43:38;;;;;;;3.08;1.37;;;26.20;99.90;;;;;;1858401;77;21590;-85
2023/06/28 11:46:33;;;;;;;2.40;1.45;;;26.20;99.90;;;;;;1874603;76;21133;-85
2023/06/28 11:49:24;;;;;;;4.17;1.55;;;26.10;99.90;;;;;;1888256;75;21105;-84
2023/06/28 11:52:20;;;;;;;3.65;1.52;;;26.30;99.90;;;;;;1883237;75;21484;-84
2023/06/28 11:55:13;;;;;;;2.17;1.35;;;26.30;99.90;;;;;;1890005;74;21118;-82
2023/06/28 11:58:05;;;;;;;1.30;1.20;;;26.30;99.90;;;;;;1866851;76;21189;-82
2023/06/28 12:00:56;;;;;;;3.42;1.62;;;26.20;99.90;;;;;;1847883;77;21154;-82
2023/06/28 12:03:47;;;;;;;2.87;1.57;;;26.20;99.90;;;;;;1868888;76;21176;-84
2023/06/28 12:06:41;;;;;;;1.85;1.37;;;26.30;99.90;;;;;;1890793;75;21118;-83
2023/06/28 12:09:34;;;;;;;2.87;1.42;;;26.40;99.90;;;;;;1874058;75;21200;-83
2023/06/28 12:12:34;;;;;;;3.92;1.50;;;26.50;99.90;;;;;;1872567;76;21104;-83
2023/06/28 12:15:25;;;;;;;2.27;1.32;;;26.40;99.90;;;;;;1872399;76;21607;-83
2023/06/28 12:18:18;;;;;;;4.45;1.80;;;26.50;99.90;;;;;;1872289;76;21106;-84
2023/06/28 12:21:21;;;;;;;3.92;1.85;;;26.70;99.90;;;;;;1871072;76;21142;-83
2023/06/28 12:24:16;;;;;;;4.53;1.72;;;26.90;99.90;;;;;;1871607;76;21107;-85
2023/06/28 12:27:09;;;;;;;3.98;1.62;;;26.90;99.90;;;;;;1899406;75;21101;-84
2023/06/28 12:30:02;;;;;;;3.42;1.62;;;27.00;99.90;;;;;;1885538;75;21654;-84
2023/06/28 12:32:55;;;;;;;3.60;1.67;;;27.20;99.90;;;;;;1885315;75;21110;-84
2023/06/28 12:35:47;;;;;;;2.33;1.52;;;27.10;99.90;;;;;;1873596;75;21131;-84
2023/06/28 12:38:44;;;;;;;3.50;1.65;;;27.20;99.90;;;;;;1870001;76;21654;-83
2023/06/28 12:41:35;;;;;;;7.55;1.70;;;27.10;99.90;;;;;;1870389;76;21201;-84
2023/06/28 12:44:27;;;;;;;3.47;1.92;;;27.10;99.90;;;;;;1852222;77;21700;-84
2023/06/28 12:47:19;;;;;;;1.98;1.60;;;27.20;99.90;;;;;;1854985;77;21638;-84
2023/06/28 12:50:11;;;;;;;2.47;1.80;;;27.30;99.70;;;;;;1887433;75;21101;-84
2023/06/28 12:53:02;;;;;;;6.50;1.90;;;27.20;99.70;;;;;;1895119;75;21131;-83
2023/06/28 12:55:54;;;;;;;4.62;1.87;;;27.30;99.80;;;;;;1882303;75;21104;-83
2023/06/28 12:58:46;;;;;;;2.87;2.00;;;27.30;99.70;;;;;;1884199;75;21043;-84
2023/06/28 13:01:38;;;;;;;2.90;1.85;;;27.30;99.30;;;;;;1882104;75;21098;-82
2023/06/28 13:04:34;;;;;;;3.40;1.80;;;27.20;99.30;;;;;;1879200;75;21184;-84
2023/06/28 13:07:25;;;;;;;3.50;1.70;;;27.30;99.10;;;;;;1888601;75;21114;-84
2023/06/28 13:10:17;;;;;;;4.22;1.60;;;27.60;98.80;;;;;;1891740;75;21079;-82
2023/06/28 13:13:08;;;;;;;4.75;1.67;;;27.60;98.60;;;;;;1903741;75;21114;-84
2023/06/28 13:16:00;;;;;;;3.67;1.62;;;27.60;98.60;;;;;;1898921;75;21117;-84
2023/06/28 13:18:51;;;;;;;3.95;1.80;;;27.60;99.10;;;;;;1857396;77;21082;-85
2023/06/28 13:21:46;;;;;;;3.77;2.02;;;27.70;98.80;;;;;;1867821;77;21921;-82
2023/06/28 13:24:37;;;;;;;2.37;1.62;;;27.80;98.60;;;;;;1891516;75;21110;-82
2023/06/28 13:27:29;;;;;;;3.12;1.67;;;27.80;97.90;;;;;;1876509;75;21204;-84
2023/06/28 13:30:21;;;;;;;5.00;1.80;;;27.90;98.40;;;;;;1881647;75;21117;-85
2023/06/28 13:33:13;;;;;;;3.37;1.90;;;27.90;97.80;;;;;;1868346;76;21326;-85
2023/06/28 13:36:05;;;;;;;3.72;1.80;;;27.90;97.30;;;;;;1875795;76;21106;-85
2023/06/28 13:38:58;;;;;;;4.00;1.80;;;28.00;97.70;;;;;;1858570;77;21201;-85
2023/06/28 13:41:49;;;;;;;3.77;1.70;;;28.20;97.70;;;;;;1900556;75;21169;-83
2023/06/28 13:44:41;;;;;;;4.90;1.98;;;28.30;97.00;;;;;;1870787;77;21099;-82
2023/06/28 13:47:32;;;;;;;3.15;1.90;;;28.20;96.70;;;;;;1871560;77;21099;-83
2023/06/28 13:50:23;;;;;;;4.55;1.98;;;28.30;96.90;;;;;;1871338;77;21192;-83
2023/06/28 13:53:15;;;;;;;3.77;2.10;;;28.60;96.60;;;;;;1870994;76;21153;-83
2023/06/28 13:56:07;;;;;;;2.62;1.40;;;28.70;96.40;;;;;;1878012;75;21158;-83
2023/06/28 13:58:58;;;;;;;3.50;1.90;;;28.90;95.30;;;;;;1871854;77;21110;-85
2023/06/28 14:01:50;;;;;;;6.05;2.05;;;29.00;95.40;;;;;;1870429;77;21093;-85
2023/06/28 14:04:41;;;;;;;3.83;1.87;;;29.20;94.70;;;;;;1870321;77;21067;-84
2023/06/28 14:07:33;;;;;;;2.75;2.00;;;29.50;94.40;;;;;;1846873;77;21168;-84
2023/06/28 14:10:25;;;;;;;4.00;2.08;;;29.50;94.10;;;;;;1840242;77;21089;-85
2023/06/28 14:15:56;;;;;;;5.50;2.08;;;29.80;93.20;;;;;;1951950;72;22231;-84
2023/06/28 14:18:47;;;;;;;4.97;2.10;;;30.00;93.40;;;;;;1930541;73;21098;-84
2023/06/28 14:21:38;;;;;;;4.87;2.08;;;29.70;93.60;;;;;;1916884;75;21189;-84
2023/06/28 14:24:30;;;;;;;3.52;2.20;;;29.90;93.00;;;;;;1916904;75;21100;-85
2023/06/28 14:27:21;;;;;;;4.40;2.60;;;30.30;92.70;;;;;;1922865;73;21513;-85
2023/06/28 14:30:14;;;;;;;4.22;2.12;;;30.50;92.30;;;;;;1916835;75;21799;-83
2023/06/28 14:33:06;;;;;;;5.33;2.30;;;30.50;91.70;;;;;;1916951;75;21067;-84
2023/06/28 14:35:57;;;;;;;5.58;2.30;;;30.80;91.30;;;;;;1917102;75;21179;-84
2023/06/28 14:38:49;;;;;;;4.53;2.27;;;30.90;91.00;;;;;;1939559;73;21110;-83
2023/06/28 14:41:40;;;;;;;3.40;2.00;;;31.20;90.30;;;;;;1917252;73;21141;-84
2023/06/28 14:44:32;;;;;;;4.58;2.33;;;31.20;90.20;;;;;;1933346;73;21061;-83
2023/06/28 14:47:23;;;;;;;3.25;2.00;;;31.00;88.70;;;;;;1916828;75;21098;-84
2023/06/28 14:50:15;;;;;;;3.02;2.10;;;30.80;89.20;;;;;;1917051;75;21059;-84
2023/06/28 14:53:08;;;;;;;2.33;1.98;;;30.90;89.40;;;;;;1917160;75;21066;-85
2023/06/28 14:55:59;;;;;;;4.20;1.82;;;31.00;89.30;;;;;;1922772;73;21234;-84
2023/06/28 14:58:53;;;;;;;3.62;2.20;;;31.00;88.50;;;;;;1930963;73;21295;-82
2023/06/28 15:01:44;;;;;;;2.90;2.12;;;31.10;87.90;;;;;;1927646;73;21106;-83
2023/06/28 15:04:35;;;;;;;2.62;2.40;;;31.00;87.80;;;;;;1927756;73;21068;-83
2023/06/28 15:07:26;;;;;;;4.67;2.30;;;31.90;87.60;;;;;;1929825;73;21201;-83
2023/06/28 15:10:17;;;;;;;2.50;2.12;;;32.20;85.70;;;;;;1916688;75;21172;-83
2023/06/28 15:13:08;;;;;;;4.55;2.25;;;32.00;85.10;;;;;;1939276;73;21109;-84
2023/06/28 15:16:00;;;;;;;6.95;2.35;;;32.00;85.40;;;;;;1916814;75;21228;-84
2023/06/28 15:18:51;;;;;;;2.70;1.82;;;31.80;84.00;;;;;;1917218;75;21157;-84
2023/06/28 15:21:43;;;;;;;3.10;2.05;;;31.80;84.80;;;;;;1932600;73;21660;-84
2023/06/28 15:24:34;;;;;;;2.85;2.08;;;31.40;84.90;;;;;;1928402;73;21214;-85
2023/06/28 15:27:26;;;;;;;4.37;2.30;;;31.80;85.50;;;;;;1916204;75;21249;-84
2023/06/28 15:30:17;;;;;;;3.92;1.80;;;32.20;83.60;;;;;;1916207;75;21143;-85
2023/06/28 15:33:09;;;;;;;4.55;2.00;;;32.30;82.00;;;;;;1916110;75;21092;-84
2023/06/28 15:36:01;;;;;;;2.60;2.17;;;32.20;82.50;;;;;;1915699;75;21059;-83
2023/06/28 15:38:52;;;;;;;3.90;2.22;;;32.20;83.20;;;;;;1915949;75;21098;-83
2023/06/28 15:41:44;;;;;;;4.70;1.90;;;32.50;83.30;;;;;;1916185;73;21865;-84
2023/06/28 15:44:35;;;;;;;3.10;2.05;;;32.90;82.40;;;;;;1932267;73;21110;-84
2023/06/28 15:47:27;;;;;;;2.70;2.00;;;32.80;81.60;;;;;;1915255;75;21432;-85
2023/06/28 15:50:19;;;;;;;4.47;2.12;;;32.90;81.20;;;;;;1922364;73;22316;-84
2023/06/28 15:53:11;;;;;;;2.67;1.98;;;33.10;81.20;;;;;;1926304;73;21172;-83
2023/06/28 15:56:02;;;;;;;2.80;1.98;;;32.60;81.20;;;;;;1915961;75;21228;-84
2023/06/28 15:58:54;;;;;;;2.92;2.00;;;32.50;81.80;;;;;;1929076;73;21115;-84
2023/06/28 16:04:25;;;;;;;4.00;1.82;;;32.10;82.10;;;;;;1935483;72;22221;-84
2023/06/28 16:07:17;;;;;;;4.97;2.00;;;32.10;82.60;;;;;;1900498;75;21114;-83
2023/06/28 16:10:12;;;;;;;3.05;2.17;;;32.20;82.70;;;;;;1893009;75;21138;-84
2023/06/28 16:13:04;;;;;;;3.35;2.00;;;32.20;83.00;;;;;;1905762;75;21165;-84
2023/06/28 16:15:56;;;;;;;4.17;2.20;;;32.10;82.90;;;;;;1883174;76;21110;-83
2023/06/28 16:18:47;;;;;;;5.67;1.92;;;32.20;82.50;;;;;;1901865;75;21143;-84
2023/06/28 16:21:39;;;;;;;4.85;1.92;;;31.90;83.40;;;;;;1898976;75;21169;-83
2023/06/28 16:24:31;;;;;;;3.08;1.70;;;32.00;83.40;;;;;;1894548;75;21577;-82
2023/06/28 16:27:25;;;;;;;4.60;1.90;;;32.10;83.10;;;;;;1890040;75;21130;-83
2023/06/28 16:30:17;;;;;;;2.37;1.87;;;31.90;84.20;;;;;;1906265;75;21168;-82
2023/06/28 16:33:10;;;;;;;3.85;1.60;;;31.90;83.60;;;;;;1899215;75;21208;-83
2023/06/28 16:36:02;;;;;;;3.35;1.70;;;31.80;83.90;;;;;;1895377;75;21131;-85
2023/06/28 16:38:53;;;;;;;2.30;2.02;;;31.70;84.40;;;;;;1894302;75;21212;-83
2023/06/28 16:41:44;;;;;;;5.80;1.87;;;31.60;85.30;;;;;;1914989;75;21176;-83
2023/06/28 16:44:36;;;;;;;3.95;2.27;;;31.60;84.90;;;;;;1902097;75;21055;-84
2023/06/28 16:47:27;;;;;;;5.20;1.85;;;31.60;84.60;;;;;;1896320;75;21614;-83
2023/06/28 16:50:19;;;;;;;3.50;1.92;;;31.70;85.30;;;;;;1894873;75;21168;-85
2023/06/28 16:53:11;;;;;;;3.33;2.10;;;31.90;85.00;;;;;;1895023;75;21132;-84
2023/06/28 16:56:02;;;;;;;3.60;1.82;;;31.80;85.20;;;;;;1906718;75;21098;-84
2023/06/28 16:58:54;;;;;;;4.83;1.85;;;31.60;85.40;;;;;;1903667;75;21172;-83
2023/06/28 17:01:47;;;;;;;3.15;1.65;;;31.80;85.80;;;;;;1905773;75;21111;-85
2023/06/28 17:04:40;;;;;;;4.30;1.70;;;31.70;86.10;;;;;;1898608;74;21183;-85
2023/06/28 17:07:32;;;;;;;4.92;1.70;;;31.80;85.90;;;;;;1912707;74;21058;-85
2023/06/28 17:10:23;;;;;;;7.67;1.80;;;31.90;86.40;;;;;;1909873;74;21154;-84
2023/06/28 17:13:15;;;;;;;3.67;1.75;;;31.90;86.30;;;;;;1910280;74;21191;-85